sensor_id;sensor_type;location;lat;lon;timestamp;P1;durP1;ratioP1;P2;durP2;ratioP2
73359;SDS011;63092;43.582;19.528;2023-06-22T00:02:16;23.15;;;20.35;;
73359;SDS011;63092;43.582;19.528;2023-06-22T00:04:42;22.17;;;19.77;;
73359;SDS011;63092;43.582;19.528;2023-06-22T00:07:08;24.00;;;20.15;;
73359;SDS011;63092;43.582;19.528;2023-06-22T00:09:34;22.27;;;19.83;;
73359;SDS011;63092;43.582;19.528;2023-06-22T00:12:01;24.15;;;20.58;;
73359;SDS011;63092;43.582;19.528;2023-06-22T00:14:27;23.73;;;20.73;;
73359;SDS011;63092;43.582;19.528;2023-06-22T00:16:53;22.77;;;20.20;;
73359;SDS011;63092;43.582;19.528;2023-06-22T00:19:23;23.05;;;20.55;;
73359;SDS011;63092;43.582;19.528;2023-06-22T00:21:49;23.25;;;19.90;;
73359;SDS011;63092;43.582;19.528;2023-06-22T00:24:19;24.20;;;20.80;;
73359;SDS011;63092;43.582;19.528;2023-06-22T00:26:49;23.17;;;20.40;;
73359;SDS011;63092;43.582;19.528;2023-06-22T00:29:15;23.27;;;19.20;;
73359;SDS011;63092;43.582;19.528;2023-06-22T00:31:41;23.63;;;19.67;;
73359;SDS011;63092;43.582;19.528;2023-06-22T00:34:08;22.02;;;19.42;;
73359;SDS011;63092;43.582;19.528;2023-06-22T00:36:34;25.25;;;19.83;;
73359;SDS011;63092;43.582;19.528;2023-06-22T00:39:00;22.23;;;19.38;;
73359;SDS011;63092;43.582;19.528;2023-06-22T00:41:26;22.85;;;20.05;;
73359;SDS011;63092;43.582;19.528;2023-06-22T00:43:53;22.95;;;20.45;;
73359;SDS011;63092;43.582;19.528;2023-06-22T00:46:20;22.17;;;19.65;;
73359;SDS011;63092;43.582;19.528;2023-06-22T00:48:47;23.23;;;20.55;;
73359;SDS011;63092;43.582;19.528;2023-06-22T00:51:14;23.00;;;20.50;;
73359;SDS011;63092;43.582;19.528;2023-06-22T00:53:40;21.85;;;19.13;;
73359;SDS011;63092;43.582;19.528;2023-06-22T00:56:08;22.33;;;19.50;;
73359;SDS011;63092;43.582;19.528;2023-06-22T00:58:36;22.08;;;19.70;;
73359;SDS011;63092;43.582;19.528;2023-06-22T01:01:02;23.20;;;19.52;;
73359;SDS011;63092;43.582;19.528;2023-06-22T01:03:28;23.83;;;19.42;;
73359;SDS011;63092;43.582;19.528;2023-06-22T01:05:56;22.00;;;18.27;;
73359;SDS011;63092;43.582;19.528;2023-06-22T01:11:08;23.80;;;19.52;;
73359;SDS011;63092;43.582;19.528;2023-06-22T01:16:31;23.48;;;19.30;;
73359;SDS011;63092;43.582;19.528;2023-06-22T01:19:12;25.95;;;20.52;;
73359;SDS011;63092;43.582;19.528;2023-06-22T01:22:00;23.52;;;20.13;;
73359;SDS011;63092;43.582;19.528;2023-06-22T01:24:32;23.33;;;20.50;;
73359;SDS011;63092;43.582;19.528;2023-06-22T01:29:57;21.83;;;19.02;;
73359;SDS011;63092;43.582;19.528;2023-06-22T01:32:29;22.70;;;20.33;;
73359;SDS011;63092;43.582;19.528;2023-06-22T01:34:58;22.60;;;19.75;;
73359;SDS011;63092;43.582;19.528;2023-06-22T01:37:25;23.38;;;19.63;;
73359;SDS011;63092;43.582;19.528;2023-06-22T01:39:51;24.27;;;20.15;;
73359;SDS011;63092;43.582;19.528;2023-06-22T01:42:19;24.13;;;19.85;;
73359;SDS011;63092;43.582;19.528;2023-06-22T01:44:44;21.17;;;18.88;;
73359;SDS011;63092;43.582;19.528;2023-06-22T01:47:11;22.48;;;20.02;;
73359;SDS011;63092;43.582;19.528;2023-06-22T01:49:39;23.00;;;19.63;;
73359;SDS011;63092;43.582;19.528;2023-06-22T01:52:06;23.73;;;19.40;;
73359;SDS011;63092;43.582;19.528;2023-06-22T01:54:32;22.42;;;19.13;;
73359;SDS011;63092;43.582;19.528;2023-06-22T01:56:58;24.60;;;19.58;;
73359;SDS011;63092;43.582;19.528;2023-06-22T02:02:11;22.58;;;20.27;;
73359;SDS011;63092;43.582;19.528;2023-06-22T02:07:10;22.75;;;19.85;;
73359;SDS011;63092;43.582;19.528;2023-06-22T02:09:42;23.25;;;20.13;;
73359;SDS011;63092;43.582;19.528;2023-06-22T02:12:10;24.03;;;19.97;;
73359;SDS011;63092;43.582;19.528;2023-06-22T02:14:38;24.45;;;19.80;;
73359;SDS011;63092;43.582;19.528;2023-06-22T02:17:04;22.30;;;18.63;;
73359;SDS011;63092;43.582;19.528;2023-06-22T02:19:32;23.20;;;19.55;;
73359;SDS011;63092;43.582;19.528;2023-06-22T02:22:02;23.52;;;20.25;;
73359;SDS011;63092;43.582;19.528;2023-06-22T02:24:28;24.30;;;20.05;;
73359;SDS011;63092;43.582;19.528;2023-06-22T02:26:57;26.10;;;21.35;;
73359;SDS011;63092;43.582;19.528;2023-06-22T02:29:23;23.20;;;20.70;;
73359;SDS011;63092;43.582;19.528;2023-06-22T02:31:49;23.60;;;20.73;;
73359;SDS011;63092;43.582;19.528;2023-06-22T02:34:15;23.13;;;20.63;;
73359;SDS011;63092;43.582;19.528;2023-06-22T02:36:43;24.67;;;20.50;;
73359;SDS011;63092;43.582;19.528;2023-06-22T02:39:25;25.17;;;21.55;;
73359;SDS011;63092;43.582;19.528;2023-06-22T02:41:51;23.27;;;20.60;;
73359;SDS011;63092;43.582;19.528;2023-06-22T02:44:17;24.02;;;21.33;;
73359;SDS011;63092;43.582;19.528;2023-06-22T02:46:44;25.58;;;21.58;;
73359;SDS011;63092;43.582;19.528;2023-06-22T02:49:10;23.83;;;21.17;;
73359;SDS011;63092;43.582;19.528;2023-06-22T02:51:38;26.08;;;21.40;;
73359;SDS011;63092;43.582;19.528;2023-06-22T02:54:06;27.23;;;21.33;;
73359;SDS011;63092;43.582;19.528;2023-06-22T02:56:32;23.85;;;21.25;;
73359;SDS011;63092;43.582;19.528;2023-06-22T02:58:58;26.50;;;21.77;;
73359;SDS011;63092;43.582;19.528;2023-06-22T03:01:27;24.25;;;21.48;;
73359;SDS011;63092;43.582;19.528;2023-06-22T03:03:53;27.50;;;23.30;;
73359;SDS011;63092;43.582;19.528;2023-06-22T03:06:20;26.23;;;22.48;;
73359;SDS011;63092;43.582;19.528;2023-06-22T03:08:49;25.90;;;22.13;;
73359;SDS011;63092;43.582;19.528;2023-06-22T03:11:15;26.30;;;22.02;;
73359;SDS011;63092;43.582;19.528;2023-06-22T03:13:41;26.65;;;22.70;;
73359;SDS011;63092;43.582;19.528;2023-06-22T03:16:07;29.33;;;23.23;;
73359;SDS011;63092;43.582;19.528;2023-06-22T03:18:32;27.13;;;22.60;;
73359;SDS011;63092;43.582;19.528;2023-06-22T03:20:58;28.75;;;23.40;;
73359;SDS011;63092;43.582;19.528;2023-06-22T03:23:24;27.52;;;22.13;;
73359;SDS011;63092;43.582;19.528;2023-06-22T03:25:49;26.00;;;23.05;;
73359;SDS011;63092;43.582;19.528;2023-06-22T03:28:15;26.77;;;22.85;;
73359;SDS011;63092;43.582;19.528;2023-06-22T03:30:41;28.45;;;23.75;;
73359;SDS011;63092;43.582;19.528;2023-06-22T03:33:07;29.65;;;23.52;;
73359;SDS011;63092;43.582;19.528;2023-06-22T03:35:32;27.67;;;23.17;;
73359;SDS011;63092;43.582;19.528;2023-06-22T03:37:58;28.90;;;22.63;;
73359;SDS011;63092;43.582;19.528;2023-06-22T03:40:24;27.95;;;23.02;;
73359;SDS011;63092;43.582;19.528;2023-06-22T03:42:49;27.88;;;23.13;;
73359;SDS011;63092;43.582;19.528;2023-06-22T03:45:15;26.13;;;22.50;;
73359;SDS011;63092;43.582;19.528;2023-06-22T03:47:41;26.85;;;22.92;;
73359;SDS011;63092;43.582;19.528;2023-06-22T03:50:07;27.88;;;22.38;;
73359;SDS011;63092;43.582;19.528;2023-06-22T03:52:33;25.13;;;22.42;;
73359;SDS011;63092;43.582;19.528;2023-06-22T03:54:58;28.00;;;22.58;;
73359;SDS011;63092;43.582;19.528;2023-06-22T03:57:24;26.55;;;22.70;;
73359;SDS011;63092;43.582;19.528;2023-06-22T03:59:50;25.67;;;22.25;;
73359;SDS011;63092;43.582;19.528;2023-06-22T04:02:16;24.33;;;21.73;;
73359;SDS011;63092;43.582;19.528;2023-06-22T04:04:41;22.45;;;20.05;;
73359;SDS011;63092;43.582;19.528;2023-06-22T04:07:07;23.58;;;20.60;;
73359;SDS011;63092;43.582;19.528;2023-06-22T04:09:33;25.85;;;21.33;;
73359;SDS011;63092;43.582;19.528;2023-06-22T04:11:59;23.30;;;20.77;;
73359;SDS011;63092;43.582;19.528;2023-06-22T04:14:25;24.70;;;21.27;;
73359;SDS011;63092;43.582;19.528;2023-06-22T04:16:51;25.65;;;20.90;;
73359;SDS011;63092;43.582;19.528;2023-06-22T04:19:17;23.92;;;21.27;;
73359;SDS011;63092;43.582;19.528;2023-06-22T04:21:43;25.92;;;21.48;;
73359;SDS011;63092;43.582;19.528;2023-06-22T04:24:13;26.95;;;21.85;;
73359;SDS011;63092;43.582;19.528;2023-06-22T04:26:39;23.02;;;20.23;;
73359;SDS011;63092;43.582;19.528;2023-06-22T04:29:07;25.15;;;21.08;;
73359;SDS011;63092;43.582;19.528;2023-06-22T04:31:35;25.40;;;20.67;;
73359;SDS011;63092;43.582;19.528;2023-06-22T04:34:02;23.02;;;20.52;;
73359;SDS011;63092;43.582;19.528;2023-06-22T04:36:38;24.15;;;20.20;;
73359;SDS011;63092;43.582;19.528;2023-06-22T04:39:06;25.30;;;19.88;;
73359;SDS011;63092;43.582;19.528;2023-06-22T04:41:34;23.05;;;20.65;;
73359;SDS011;63092;43.582;19.528;2023-06-22T04:44:10;24.70;;;20.48;;
73359;SDS011;63092;43.582;19.528;2023-06-22T04:46:36;24.60;;;19.90;;
73359;SDS011;63092;43.582;19.528;2023-06-22T04:49:06;22.30;;;19.90;;
73359;SDS011;63092;43.582;19.528;2023-06-22T04:51:40;22.52;;;20.00;;
73359;SDS011;63092;43.582;19.528;2023-06-22T04:54:06;24.30;;;19.63;;
73359;SDS011;63092;43.582;19.528;2023-06-22T04:56:33;27.33;;;20.73;;
73359;SDS011;63092;43.582;19.528;2023-06-22T04:58:59;24.20;;;21.00;;
73359;SDS011;63092;43.582;19.528;2023-06-22T05:01:25;24.35;;;20.70;;
73359;SDS011;63092;43.582;19.528;2023-06-22T05:03:51;22.98;;;20.58;;
73359;SDS011;63092;43.582;19.528;2023-06-22T05:06:23;23.95;;;20.38;;
73359;SDS011;63092;43.582;19.528;2023-06-22T05:11:17;22.35;;;19.95;;
73359;SDS011;63092;43.582;19.528;2023-06-22T05:13:43;22.25;;;19.88;;
73359;SDS011;63092;43.582;19.528;2023-06-22T05:16:08;23.52;;;20.88;;
73359;SDS011;63092;43.582;19.528;2023-06-22T05:18:34;22.98;;;20.08;;
73359;SDS011;63092;43.582;19.528;2023-06-22T05:21:01;22.92;;;18.83;;
73359;SDS011;63092;43.582;19.528;2023-06-22T05:23:27;21.70;;;19.35;;
73359;SDS011;63092;43.582;19.528;2023-06-22T05:25:52;22.48;;;18.95;;
73359;SDS011;63092;43.582;19.528;2023-06-22T05:28:19;20.67;;;18.50;;
73359;SDS011;63092;43.582;19.528;2023-06-22T05:30:48;22.45;;;19.00;;
73359;SDS011;63092;43.582;19.528;2023-06-22T05:33:13;21.95;;;18.60;;
73359;SDS011;63092;43.582;19.528;2023-06-22T05:35:39;22.20;;;18.45;;
73359;SDS011;63092;43.582;19.528;2023-06-22T05:38:05;20.85;;;18.50;;
73359;SDS011;63092;43.582;19.528;2023-06-22T05:40:31;20.88;;;18.48;;
73359;SDS011;63092;43.582;19.528;2023-06-22T05:42:56;20.75;;;18.08;;
73359;SDS011;63092;43.582;19.528;2023-06-22T05:45:22;19.58;;;17.55;;
73359;SDS011;63092;43.582;19.528;2023-06-22T05:47:48;19.75;;;17.65;;
73359;SDS011;63092;43.582;19.528;2023-06-22T05:50:14;20.77;;;17.40;;
73359;SDS011;63092;43.582;19.528;2023-06-22T05:52:39;19.23;;;17.23;;
73359;SDS011;63092;43.582;19.528;2023-06-22T05:55:05;21.75;;;17.52;;
73359;SDS011;63092;43.582;19.528;2023-06-22T05:57:31;19.73;;;17.63;;
73359;SDS011;63092;43.582;19.528;2023-06-22T05:59:57;19.40;;;17.38;;
73359;SDS011;63092;43.582;19.528;2023-06-22T06:02:23;19.73;;;17.73;;
73359;SDS011;63092;43.582;19.528;2023-06-22T06:04:48;19.38;;;17.35;;
73359;SDS011;63092;43.582;19.528;2023-06-22T06:07:16;20.92;;;18.60;;
73359;SDS011;63092;43.582;19.528;2023-06-22T06:09:42;19.48;;;17.38;;
73359;SDS011;63092;43.582;19.528;2023-06-22T06:12:08;19.85;;;17.65;;
73359;SDS011;63092;43.582;19.528;2023-06-22T06:14:34;21.20;;;17.83;;
73359;SDS011;63092;43.582;19.528;2023-06-22T06:17:00;19.33;;;17.33;;
73359;SDS011;63092;43.582;19.528;2023-06-22T06:19:26;19.90;;;17.83;;
73359;SDS011;63092;43.582;19.528;2023-06-22T06:21:51;23.13;;;18.58;;
73359;SDS011;63092;43.582;19.528;2023-06-22T06:24:17;22.08;;;19.35;;
73359;SDS011;63092;43.582;19.528;2023-06-22T06:26:43;19.35;;;17.25;;
73359;SDS011;63092;43.582;19.528;2023-06-22T06:29:08;19.08;;;17.08;;
73359;SDS011;63092;43.582;19.528;2023-06-22T06:31:34;18.17;;;16.30;;
73359;SDS011;63092;43.582;19.528;2023-06-22T06:34:01;21.38;;;16.88;;
73359;SDS011;63092;43.582;19.528;2023-06-22T06:36:27;23.98;;;16.75;;
73359;SDS011;63092;43.582;19.528;2023-06-22T06:38:53;19.42;;;17.42;;
73359;SDS011;63092;43.582;19.528;2023-06-22T06:41:18;19.05;;;17.05;;
73359;SDS011;63092;43.582;19.528;2023-06-22T06:43:44;19.13;;;17.08;;
73359;SDS011;63092;43.582;19.528;2023-06-22T06:46:10;19.05;;;17.02;;
73359;SDS011;63092;43.582;19.528;2023-06-22T06:48:36;19.33;;;16.38;;
73359;SDS011;63092;43.582;19.528;2023-06-22T06:51:02;19.02;;;16.95;;
73359;SDS011;63092;43.582;19.528;2023-06-22T06:53:27;18.30;;;16.25;;
73359;SDS011;63092;43.582;19.528;2023-06-22T06:55:53;19.92;;;16.27;;
73359;SDS011;63092;43.582;19.528;2023-06-22T06:58:19;17.77;;;15.98;;
73359;SDS011;63092;43.582;19.528;2023-06-22T07:00:45;19.35;;;17.35;;
73359;SDS011;63092;43.582;19.528;2023-06-22T07:03:11;19.17;;;17.13;;
73359;SDS011;63092;43.582;19.528;2023-06-22T07:05:37;18.77;;;16.77;;
73359;SDS011;63092;43.582;19.528;2023-06-22T07:08:02;21.38;;;16.92;;
73359;SDS011;63092;43.582;19.528;2023-06-22T07:10:28;18.00;;;16.08;;
73359;SDS011;63092;43.582;19.528;2023-06-22T07:12:54;20.75;;;17.70;;
73359;SDS011;63092;43.582;19.528;2023-06-22T07:15:20;20.60;;;17.77;;
73359;SDS011;63092;43.582;19.528;2023-06-22T07:17:46;19.35;;;17.15;;
73359;SDS011;63092;43.582;19.528;2023-06-22T07:20:11;19.35;;;17.35;;
73359;SDS011;63092;43.582;19.528;2023-06-22T07:22:38;19.80;;;16.88;;
73359;SDS011;63092;43.582;19.528;2023-06-22T07:25:09;19.25;;;17.25;;
73359;SDS011;63092;43.582;19.528;2023-06-22T07:27:38;19.15;;;17.20;;
73359;SDS011;63092;43.582;19.528;2023-06-22T07:30:08;19.60;;;17.40;;
73359;SDS011;63092;43.582;19.528;2023-06-22T07:32:35;20.13;;;17.98;;
73359;SDS011;63092;43.582;19.528;2023-06-22T07:35:01;19.95;;;17.38;;
73359;SDS011;63092;43.582;19.528;2023-06-22T07:37:27;21.38;;;18.00;;
73359;SDS011;63092;43.582;19.528;2023-06-22T07:39:54;59.55;;;40.63;;
73359;SDS011;63092;43.582;19.528;2023-06-22T07:42:26;27.20;;;22.30;;
73359;SDS011;63092;43.582;19.528;2023-06-22T07:44:53;19.15;;;17.20;;
73359;SDS011;63092;43.582;19.528;2023-06-22T07:47:19;20.48;;;17.50;;
73359;SDS011;63092;43.582;19.528;2023-06-22T07:49:50;20.08;;;17.88;;
73359;SDS011;63092;43.582;19.528;2023-06-22T07:52:15;19.17;;;17.17;;
73359;SDS011;63092;43.582;19.528;2023-06-22T07:54:41;19.05;;;17.02;;
73359;SDS011;63092;43.582;19.528;2023-06-22T07:57:07;20.20;;;18.10;;
73359;SDS011;63092;43.582;19.528;2023-06-22T07:59:33;19.17;;;17.15;;
73359;SDS011;63092;43.582;19.528;2023-06-22T08:01:58;19.52;;;17.45;;
73359;SDS011;63092;43.582;19.528;2023-06-22T08:04:24;18.92;;;16.92;;
73359;SDS011;63092;43.582;19.528;2023-06-22T08:06:52;19.67;;;17.58;;
73359;SDS011;63092;43.582;19.528;2023-06-22T08:09:19;19.73;;;17.73;;
73359;SDS011;63092;43.582;19.528;2023-06-22T08:11:44;19.25;;;17.35;;
73359;SDS011;63092;43.582;19.528;2023-06-22T08:14:10;19.60;;;17.50;;
73359;SDS011;63092;43.582;19.528;2023-06-22T08:16:36;20.95;;;17.30;;
73359;SDS011;63092;43.582;19.528;2023-06-22T08:19:01;18.92;;;16.98;;
73359;SDS011;63092;43.582;19.528;2023-06-22T08:21:27;20.30;;;17.67;;
73359;SDS011;63092;43.582;19.528;2023-06-22T08:23:53;19.33;;;17.27;;
73359;SDS011;63092;43.582;19.528;2023-06-22T08:26:19;18.30;;;16.50;;
73359;SDS011;63092;43.582;19.528;2023-06-22T08:28:45;18.23;;;16.35;;
73359;SDS011;63092;43.582;19.528;2023-06-22T08:31:10;20.60;;;18.08;;
73359;SDS011;63092;43.582;19.528;2023-06-22T08:33:39;20.73;;;17.87;;
73359;SDS011;63092;43.582;19.528;2023-06-22T08:36:05;19.13;;;17.08;;
73359;SDS011;63092;43.582;19.528;2023-06-22T08:38:31;22.67;;;17.38;;
73359;SDS011;63092;43.582;19.528;2023-06-22T08:40:57;20.63;;;17.27;;
73359;SDS011;63092;43.582;19.528;2023-06-22T08:43:23;19.30;;;17.20;;
73359;SDS011;63092;43.582;19.528;2023-06-22T08:45:48;19.38;;;17.33;;
73359;SDS011;63092;43.582;19.528;2023-06-22T08:48:14;27.73;;;16.70;;
73359;SDS011;63092;43.582;19.528;2023-06-22T08:50:40;19.67;;;17.60;;
73359;SDS011;63092;43.582;19.528;2023-06-22T08:53:06;19.45;;;17.45;;
73359;SDS011;63092;43.582;19.528;2023-06-22T08:55:32;19.90;;;17.80;;
73359;SDS011;63092;43.582;19.528;2023-06-22T08:57:58;23.40;;;17.90;;
73359;SDS011;63092;43.582;19.528;2023-06-22T09:00:24;21.25;;;18.23;;
73359;SDS011;63092;43.582;19.528;2023-06-22T09:02:50;19.23;;;17.25;;
73359;SDS011;63092;43.582;19.528;2023-06-22T09:05:16;18.45;;;16.55;;
73359;SDS011;63092;43.582;19.528;2023-06-22T09:07:42;20.85;;;18.35;;
73359;SDS011;63092;43.582;19.528;2023-06-22T09:10:08;20.08;;;17.98;;
73359;SDS011;63092;43.582;19.528;2023-06-22T09:12:34;18.55;;;16.75;;
73359;SDS011;63092;43.582;19.528;2023-06-22T09:15:01;19.05;;;17.02;;
73359;SDS011;63092;43.582;19.528;2023-06-22T09:17:28;20.27;;;17.60;;
73359;SDS011;63092;43.582;19.528;2023-06-22T09:19:54;20.00;;;17.35;;
73359;SDS011;63092;43.582;19.528;2023-06-22T09:22:20;19.70;;;17.67;;
73359;SDS011;63092;43.582;19.528;2023-06-22T09:24:46;18.55;;;16.75;;
73359;SDS011;63092;43.582;19.528;2023-06-22T09:27:11;18.90;;;17.00;;
73359;SDS011;63092;43.582;19.528;2023-06-22T09:29:37;20.70;;;16.77;;
73359;SDS011;63092;43.582;19.528;2023-06-22T09:32:03;20.13;;;17.35;;
73359;SDS011;63092;43.582;19.528;2023-06-22T09:34:30;20.80;;;18.17;;
73359;SDS011;63092;43.582;19.528;2023-06-22T09:36:56;21.23;;;17.98;;
73359;SDS011;63092;43.582;19.528;2023-06-22T09:41:51;20.63;;;18.42;;
73359;SDS011;63092;43.582;19.528;2023-06-22T09:44:17;19.25;;;17.25;;
73359;SDS011;63092;43.582;19.528;2023-06-22T09:46:43;20.90;;;18.45;;
73359;SDS011;63092;43.582;19.528;2023-06-22T09:49:09;19.05;;;17.08;;
73359;SDS011;63092;43.582;19.528;2023-06-22T09:51:34;18.30;;;16.15;;
73359;SDS011;63092;43.582;19.528;2023-06-22T09:54:00;19.40;;;16.58;;
73359;SDS011;63092;43.582;19.528;2023-06-22T09:56:26;19.02;;;17.13;;
73359;SDS011;63092;43.582;19.528;2023-06-22T09:58:53;18.77;;;16.85;;
73359;SDS011;63092;43.582;19.528;2023-06-22T10:01:19;18.13;;;16.17;;
73359;SDS011;63092;43.582;19.528;2023-06-22T10:03:46;17.95;;;15.82;;
73359;SDS011;63092;43.582;19.528;2023-06-22T10:06:12;17.77;;;15.80;;
73359;SDS011;63092;43.582;19.528;2023-06-22T10:08:38;17.63;;;15.63;;
73359;SDS011;63092;43.582;19.528;2023-06-22T10:11:04;17.50;;;15.73;;
73359;SDS011;63092;43.582;19.528;2023-06-22T10:13:30;20.00;;;15.82;;
73359;SDS011;63092;43.582;19.528;2023-06-22T10:15:56;17.10;;;15.05;;
73359;SDS011;63092;43.582;19.528;2023-06-22T10:18:22;16.63;;;15.02;;
73359;SDS011;63092;43.582;19.528;2023-06-22T10:20:49;17.40;;;15.70;;
73359;SDS011;63092;43.582;19.528;2023-06-22T10:23:21;18.88;;;15.82;;
73359;SDS011;63092;43.582;19.528;2023-06-22T10:25:48;16.92;;;15.23;;
73359;SDS011;63092;43.582;19.528;2023-06-22T10:28:14;16.38;;;14.75;;
73359;SDS011;63092;43.582;19.528;2023-06-22T10:30:40;18.17;;;14.85;;
73359;SDS011;63092;43.582;19.528;2023-06-22T10:33:07;15.63;;;14.00;;
73359;SDS011;63092;43.582;19.528;2023-06-22T10:35:33;16.08;;;14.38;;
73359;SDS011;63092;43.582;19.528;2023-06-22T10:37:59;15.32;;;13.65;;
73359;SDS011;63092;43.582;19.528;2023-06-22T10:40:25;16.60;;;14.65;;
73359;SDS011;63092;43.582;19.528;2023-06-22T10:42:51;16.90;;;14.10;;
73359;SDS011;63092;43.582;19.528;2023-06-22T10:45:17;15.32;;;12.63;;
73359;SDS011;63092;43.582;19.528;2023-06-22T10:47:43;15.30;;;12.73;;
73359;SDS011;63092;43.582;19.528;2023-06-22T10:50:10;20.83;;;12.65;;
73359;SDS011;63092;43.582;19.528;2023-06-22T10:52:36;14.52;;;11.60;;
73359;SDS011;63092;43.582;19.528;2023-06-22T10:55:02;16.33;;;11.55;;
73359;SDS011;63092;43.582;19.528;2023-06-22T10:57:28;18.70;;;12.75;;
73359;SDS011;63092;43.582;19.528;2023-06-22T10:59:54;16.27;;;11.98;;
73359;SDS011;63092;43.582;19.528;2023-06-22T11:02:20;16.45;;;11.82;;
73359;SDS011;63092;43.582;19.528;2023-06-22T11:04:46;15.65;;;11.90;;
73359;SDS011;63092;43.582;19.528;2023-06-22T11:07:12;16.08;;;11.95;;
73359;SDS011;63092;43.582;19.528;2023-06-22T11:09:38;14.10;;;11.95;;
73359;SDS011;63092;43.582;19.528;2023-06-22T11:12:04;17.23;;;11.27;;
73359;SDS011;63092;43.582;19.528;2023-06-22T11:14:31;15.52;;;12.68;;
73359;SDS011;63092;43.582;19.528;2023-06-22T11:16:58;17.65;;;15.52;;
73359;SDS011;63092;43.582;19.528;2023-06-22T11:19:24;15.40;;;12.30;;
73359;SDS011;63092;43.582;19.528;2023-06-22T11:21:50;18.10;;;11.63;;
73359;SDS011;63092;43.582;19.528;2023-06-22T11:24:16;15.32;;;11.75;;
73359;SDS011;63092;43.582;19.528;2023-06-22T11:26:42;17.83;;;14.18;;
73359;SDS011;63092;43.582;19.528;2023-06-22T11:29:08;15.13;;;12.27;;
73359;SDS011;63092;43.582;19.528;2023-06-22T11:31:34;14.57;;;12.57;;
73359;SDS011;63092;43.582;19.528;2023-06-22T11:34:00;15.90;;;12.70;;
73359;SDS011;63092;43.582;19.528;2023-06-22T11:36:26;17.27;;;11.20;;
73359;SDS011;63092;43.582;19.528;2023-06-22T11:38:54;15.82;;;8.02;;
73359;SDS011;63092;43.582;19.528;2023-06-22T11:41:19;14.70;;;9.68;;
73359;SDS011;63092;43.582;19.528;2023-06-22T11:43:45;17.52;;;8.70;;
73359;SDS011;63092;43.582;19.528;2023-06-22T11:46:11;12.77;;;9.25;;
73359;SDS011;63092;43.582;19.528;2023-06-22T11:48:37;14.18;;;10.10;;
73359;SDS011;63092;43.582;19.528;2023-06-22T11:51:03;14.82;;;11.20;;
73359;SDS011;63092;43.582;19.528;2023-06-22T11:53:29;13.93;;;11.10;;
73359;SDS011;63092;43.582;19.528;2023-06-22T11:55:54;15.77;;;11.13;;
73359;SDS011;63092;43.582;19.528;2023-06-22T11:58:21;13.32;;;10.85;;
73359;SDS011;63092;43.582;19.528;2023-06-22T12:00:48;13.13;;;9.52;;
73359;SDS011;63092;43.582;19.528;2023-06-22T12:03:15;11.02;;;7.47;;
73359;SDS011;63092;43.582;19.528;2023-06-22T12:05:41;13.63;;;7.95;;
73359;SDS011;63092;43.582;19.528;2023-06-22T12:08:07;13.90;;;8.68;;
73359;SDS011;63092;43.582;19.528;2023-06-22T12:10:33;13.38;;;8.98;;
73359;SDS011;63092;43.582;19.528;2023-06-22T12:12:59;15.80;;;8.88;;
73359;SDS011;63092;43.582;19.528;2023-06-22T12:15:25;17.15;;;7.07;;
73359;SDS011;63092;43.582;19.528;2023-06-22T12:17:52;12.50;;;7.60;;
73359;SDS011;63092;43.582;19.528;2023-06-22T12:20:17;11.68;;;6.90;;
73359;SDS011;63092;43.582;19.528;2023-06-22T12:22:44;15.88;;;7.65;;
73359;SDS011;63092;43.582;19.528;2023-06-22T12:25:10;13.63;;;8.63;;
73359;SDS011;63092;43.582;19.528;2023-06-22T12:27:36;15.32;;;9.10;;
73359;SDS011;63092;43.582;19.528;2023-06-22T12:30:02;15.77;;;9.60;;
73359;SDS011;63092;43.582;19.528;2023-06-22T12:32:28;15.75;;;10.30;;
73359;SDS011;63092;43.582;19.528;2023-06-22T12:34:55;16.00;;;8.55;;
73359;SDS011;63092;43.582;19.528;2023-06-22T12:37:21;15.25;;;9.15;;
73359;SDS011;63092;43.582;19.528;2023-06-22T12:39:47;12.18;;;8.75;;
73359;SDS011;63092;43.582;19.528;2023-06-22T12:42:12;14.15;;;9.75;;
73359;SDS011;63092;43.582;19.528;2023-06-22T12:44:38;16.75;;;9.75;;
73359;SDS011;63092;43.582;19.528;2023-06-22T12:47:05;13.85;;;8.77;;
73359;SDS011;63092;43.582;19.528;2023-06-22T12:49:31;13.95;;;8.85;;
73359;SDS011;63092;43.582;19.528;2023-06-22T12:51:56;12.27;;;8.35;;
73359;SDS011;63092;43.582;19.528;2023-06-22T12:54:22;13.90;;;8.90;;
73359;SDS011;63092;43.582;19.528;2023-06-22T12:56:49;12.82;;;8.40;;
73359;SDS011;63092;43.582;19.528;2023-06-22T12:59:15;12.60;;;9.00;;
73359;SDS011;63092;43.582;19.528;2023-06-22T13:01:42;15.10;;;9.20;;
73359;SDS011;63092;43.582;19.528;2023-06-22T13:04:10;14.65;;;9.50;;
73359;SDS011;63092;43.582;19.528;2023-06-22T13:06:43;13.73;;;9.32;;
73359;SDS011;63092;43.582;19.528;2023-06-22T13:09:13;15.18;;;10.35;;
73359;SDS011;63092;43.582;19.528;2023-06-22T13:11:39;14.48;;;10.10;;
73359;SDS011;63092;43.582;19.528;2023-06-22T13:14:05;12.48;;;9.43;;
73359;SDS011;63092;43.582;19.528;2023-06-22T13:16:31;14.48;;;10.05;;
73359;SDS011;63092;43.582;19.528;2023-06-22T13:18:57;14.02;;;9.68;;
73359;SDS011;63092;43.582;19.528;2023-06-22T13:21:22;15.82;;;9.93;;
73359;SDS011;63092;43.582;19.528;2023-06-22T13:34:31;12.13;;;9.30;;
73359;SDS011;63092;43.582;19.528;2023-06-22T13:36:57;15.00;;;9.85;;
73359;SDS011;63092;43.582;19.528;2023-06-22T13:39:22;13.27;;;10.68;;
73359;SDS011;63092;43.582;19.528;2023-06-22T13:41:48;14.45;;;9.88;;
73359;SDS011;63092;43.582;19.528;2023-06-22T13:44:14;16.63;;;9.90;;
73359;SDS011;63092;43.582;19.528;2023-06-22T13:46:40;13.40;;;9.48;;
73359;SDS011;63092;43.582;19.528;2023-06-22T13:49:05;13.18;;;9.73;;
73359;SDS011;63092;43.582;19.528;2023-06-22T13:51:31;16.20;;;10.55;;
73359;SDS011;63092;43.582;19.528;2023-06-22T13:53:57;13.40;;;9.40;;
73359;SDS011;63092;43.582;19.528;2023-06-22T13:56:23;13.70;;;9.40;;
73359;SDS011;63092;43.582;19.528;2023-06-22T13:58:48;14.32;;;9.90;;
73359;SDS011;63092;43.582;19.528;2023-06-22T14:01:14;16.45;;;9.82;;
73359;SDS011;63092;43.582;19.528;2023-06-22T14:03:40;15.25;;;9.77;;
73359;SDS011;63092;43.582;19.528;2023-06-22T14:06:05;15.52;;;10.73;;
73359;SDS011;63092;43.582;19.528;2023-06-22T14:08:31;13.15;;;9.23;;
73359;SDS011;63092;43.582;19.528;2023-06-22T14:10:57;16.88;;;9.73;;
73359;SDS011;63092;43.582;19.528;2023-06-22T14:13:23;11.88;;;9.38;;
73359;SDS011;63092;43.582;19.528;2023-06-22T14:15:49;16.95;;;9.68;;
73359;SDS011;63092;43.582;19.528;2023-06-22T14:18:17;13.90;;;9.80;;
73359;SDS011;63092;43.582;19.528;2023-06-22T14:20:43;14.70;;;9.50;;
73359;SDS011;63092;43.582;19.528;2023-06-22T14:23:09;14.20;;;9.65;;
73359;SDS011;63092;43.582;19.528;2023-06-22T14:25:34;12.52;;;9.60;;
73359;SDS011;63092;43.582;19.528;2023-06-22T14:28:00;14.63;;;10.23;;
73359;SDS011;63092;43.582;19.528;2023-06-22T14:30:26;14.40;;;9.95;;
73359;SDS011;63092;43.582;19.528;2023-06-22T14:32:51;14.85;;;9.35;;
73359;SDS011;63092;43.582;19.528;2023-06-22T14:35:17;15.57;;;9.65;;
73359;SDS011;63092;43.582;19.528;2023-06-22T14:37:43;11.68;;;8.73;;